createdAt,value
2017-10-06T00:02:25.201Z,2.10
2017-10-06T00:04:51.387Z,2.67
2017-10-06T00:07:17.601Z,2.00
2017-10-06T00:09:43.873Z,1.93
2017-10-06T00:12:10.090Z,2.27
2017-10-06T00:14:37.074Z,1.60
2017-10-06T00:17:03.257Z,2.20
2017-10-06T00:19:30.306Z,2.10
2017-10-06T00:21:57.269Z,2.17
2017-10-06T00:24:23.517Z,1.90
2017-10-06T00:26:49.710Z,1.47
2017-10-06T00:29:16.673Z,2.37
2017-10-06T00:31:42.901Z,2.87
2017-10-06T00:34:09.125Z,1.70
2017-10-06T00:36:35.323Z,2.10
2017-10-06T00:39:01.530Z,2.77
2017-10-06T00:41:27.737Z,2.30
2017-10-06T00:43:53.971Z,2.60
2017-10-06T00:46:20.186Z,2.03
2017-10-06T00:48:47.178Z,2.17
2017-10-06T00:51:13.401Z,2.40
2017-10-06T00:53:39.702Z,2.27
2017-10-06T00:56:05.901Z,2.27
2017-10-06T00:58:32.134Z,2.03
2017-10-06T01:00:58.361Z,1.90
2017-10-06T01:03:24.634Z,2.43
2017-10-06T01:05:50.844Z,2.93
2017-10-06T01:08:17.062Z,2.20
2017-10-06T01:10:43.349Z,2.83
2017-10-06T01:13:10.286Z,3.20
2017-10-06T01:15:36.535Z,3.47
2017-10-06T01:18:02.783Z,2.67
2017-10-06T01:20:29.018Z,2.50
2017-10-06T01:22:55.247Z,2.70
2017-10-06T01:25:21.487Z,2.63
2017-10-06T01:27:47.762Z,2.60
2017-10-06T01:30:14.746Z,2.20
2017-10-06T01:32:40.970Z,2.73
2017-10-06T01:35:07.189Z,2.70
2017-10-06T01:37:33.399Z,2.90
2017-10-06T01:40:00.369Z,2.10
2017-10-06T01:42:26.589Z,2.80
2017-10-06T01:44:52.837Z,2.80
2017-10-06T01:47:19.066Z,2.20
2017-10-06T01:49:45.300Z,2.63
2017-10-06T01:52:11.549Z,2.27
2017-10-06T01:54:37.781Z,1.83
2017-10-06T01:57:04.010Z,2.27
2017-10-06T01:59:30.262Z,1.87
2017-10-06T02:01:57.261Z,2.20
2017-10-06T02:04:23.563Z,2.60
2017-10-06T02:06:50.502Z,2.57
2017-10-06T02:09:16.757Z,2.07
2017-10-06T02:11:42.963Z,1.97
2017-10-06T02:14:09.218Z,2.53
2017-10-06T02:16:35.447Z,2.47
2017-10-06T02:19:01.667Z,1.67
2017-10-06T02:21:27.901Z,1.70
2017-10-06T02:23:54.125Z,2.77
2017-10-06T02:26:20.478Z,1.70
2017-10-06T02:28:46.717Z,1.77
2017-10-06T02:31:13.086Z,1.60
2017-10-06T02:33:40.017Z,2.10
2017-10-06T02:36:06.969Z,2.50
2017-10-06T02:38:33.917Z,2.00
2017-10-06T02:41:00.897Z,2.10
2017-10-06T02:43:27.118Z,1.93
2017-10-06T02:45:53.342Z,2.57
2017-10-06T02:48:19.582Z,2.63
2017-10-06T02:50:45.882Z,2.47
2017-10-06T02:53:12.825Z,2.73
2017-10-06T02:55:39.763Z,2.77
2017-10-06T02:58:06.838Z,2.53
2017-10-06T03:00:33.078Z,1.90
2017-10-06T03:02:59.261Z,1.87
2017-10-06T03:05:25.473Z,3.00
2017-10-06T03:07:51.709Z,2.73
2017-10-06T03:10:17.934Z,2.10
2017-10-06T03:12:44.158Z,2.93
2017-10-06T03:15:10.401Z,2.17
2017-10-06T03:17:36.642Z,2.90
2017-10-06T03:20:03.750Z,3.20
2017-10-06T03:22:30.089Z,2.77
2017-10-06T03:24:56.287Z,2.33
2017-10-06T03:27:22.509Z,2.40
2017-10-06T03:29:48.705Z,2.60
2017-10-06T03:32:15.654Z,2.47
2017-10-06T03:34:41.873Z,2.43
2017-10-06T03:37:08.820Z,2.73
2017-10-06T03:39:35.804Z,3.30
2017-10-06T03:42:02.023Z,2.30
2017-10-06T03:44:28.491Z,3.00
2017-10-06T03:46:55.469Z,2.83
2017-10-06T03:49:22.525Z,3.07
2017-10-06T03:51:49.478Z,3.23
2017-10-06T03:54:16.421Z,3.13
2017-10-06T03:56:43.357Z,3.00
2017-10-06T03:59:10.327Z,1.97
2017-10-06T04:01:36.517Z,3.13
2017-10-06T04:04:02.733Z,2.40
2017-10-06T04:06:28.925Z,3.00
2017-10-06T04:08:55.157Z,2.70
2017-10-06T04:11:21.445Z,2.40
2017-10-06T04:13:48.390Z,2.83
2017-10-06T04:16:15.370Z,3.27
2017-10-06T04:18:41.614Z,3.20
2017-10-06T04:21:07.833Z,4.03
2017-10-06T04:23:34.059Z,3.40
2017-10-06T04:26:00.277Z,2.80
2017-10-06T04:28:26.483Z,3.43
2017-10-06T04:30:53.445Z,2.50
2017-10-06T04:33:19.683Z,3.13
2017-10-06T04:35:45.887Z,3.77
2017-10-06T04:38:12.086Z,2.43
2017-10-06T04:40:38.297Z,2.73
2017-10-06T04:43:04.486Z,3.00
2017-10-06T04:45:30.741Z,2.80
2017-10-06T04:47:57.030Z,2.33
2017-10-06T04:50:23.256Z,2.53
2017-10-06T04:52:50.197Z,2.53
2017-10-06T04:55:17.170Z,2.20
2017-10-06T04:57:43.377Z,2.83
2017-10-06T05:00:09.586Z,3.13
2017-10-06T05:02:36.565Z,2.03
2017-10-06T05:05:02.789Z,3.00
2017-10-06T05:07:29.052Z,3.10
2017-10-06T05:09:55.317Z,3.00
2017-10-06T05:12:22.326Z,2.83
2017-10-06T05:14:48.535Z,2.63
2017-10-06T05:17:14.797Z,3.20
2017-10-06T05:19:41.010Z,3.20
2017-10-06T05:22:07.301Z,2.33
2017-10-06T05:24:33.493Z,3.17
2017-10-06T05:26:59.710Z,2.27
2017-10-06T05:29:25.893Z,2.30
2017-10-06T05:31:52.093Z,2.70
2017-10-06T05:34:19.025Z,2.60
2017-10-06T05:36:45.237Z,2.43
2017-10-06T05:39:11.505Z,2.10
2017-10-06T05:41:37.780Z,2.87
2017-10-06T05:44:03.981Z,2.17
2017-10-06T05:46:30.277Z,2.97
2017-10-06T05:48:57.220Z,2.57
2017-10-06T05:51:24.281Z,1.40
2017-10-06T05:53:51.225Z,2.30
2017-10-06T05:56:18.165Z,2.27
2017-10-06T05:58:44.349Z,3.07
2017-10-06T06:01:10.617Z,2.60
2017-10-06T06:03:37.549Z,2.83
2017-10-06T06:06:03.786Z,2.97
2017-10-06T06:08:30.762Z,2.43
2017-10-06T06:10:57.078Z,2.90
2017-10-06T06:13:24.029Z,2.20
2017-10-06T06:15:50.265Z,1.83
2017-10-06T06:18:16.506Z,2.60
2017-10-06T06:20:42.717Z,2.17
2017-10-06T06:23:08.945Z,2.10
2017-10-06T06:25:35.165Z,3.97
2017-10-06T06:28:02.129Z,2.63
2017-10-06T06:30:28.345Z,2.70
2017-10-06T06:32:54.588Z,3.40
2017-10-06T06:35:20.790Z,2.60
2017-10-06T06:37:47.781Z,2.30
2017-10-06T06:40:14.022Z,3.33
2017-10-06T06:42:40.286Z,4.10
2017-10-06T06:45:07.269Z,3.53
2017-10-06T06:47:33.532Z,2.70
2017-10-06T06:49:59.791Z,3.20
2017-10-06T06:52:26.765Z,2.20
2017-10-06T06:54:53.077Z,1.80
2017-10-06T06:57:20.042Z,4.20
2017-10-06T06:59:46.273Z,2.40
2017-10-06T07:02:12.469Z,2.60
2017-10-06T07:04:39.434Z,3.80
2017-10-06T07:07:05.669Z,3.23
2017-10-06T07:09:31.929Z,3.50
2017-10-06T07:11:58.874Z,3.47
2017-10-06T07:14:25.077Z,3.50
2017-10-06T07:16:51.325Z,4.07
2017-10-06T07:19:17.524Z,2.93
2017-10-06T07:21:43.798Z,4.20
2017-10-06T07:24:10.011Z,3.17
2017-10-06T07:26:36.263Z,3.20
2017-10-06T07:29:02.473Z,4.00
2017-10-06T07:31:28.729Z,4.17
2017-10-06T07:33:54.965Z,3.23
2017-10-06T07:36:21.922Z,3.70
2017-10-06T07:38:48.866Z,4.30
2017-10-06T07:41:15.836Z,4.93
2017-10-06T07:43:42.027Z,3.93
2017-10-06T07:46:09.007Z,3.47
2017-10-06T07:48:35.253Z,3.67
2017-10-06T07:51:01.494Z,4.23
2017-10-06T07:53:27.725Z,3.87
2017-10-06T07:55:53.938Z,4.07
2017-10-06T07:58:20.140Z,4.00
2017-10-06T08:00:46.370Z,3.03
2017-10-06T08:03:12.562Z,3.30
2017-10-06T08:05:38.769Z,3.33
2017-10-06T08:08:04.985Z,2.70
2017-10-06T08:10:31.242Z,2.77
2017-10-06T08:12:57.437Z,2.90
2017-10-06T08:15:23.693Z,3.90
2017-10-06T08:17:49.902Z,3.10
2017-10-06T08:20:16.186Z,3.57
2017-10-06T08:22:43.181Z,3.00
2017-10-06T08:25:09.380Z,3.20
2017-10-06T08:27:35.649Z,2.40
2017-10-06T08:30:01.871Z,1.50
2017-10-06T08:32:28.118Z,3.67
2017-10-06T08:34:54.370Z,2.40
2017-10-06T08:37:21.346Z,3.77
2017-10-06T08:39:47.549Z,3.20
2017-10-06T08:42:14.525Z,2.60
2017-10-06T08:44:40.746Z,3.93
2017-10-06T08:47:06.986Z,2.83
2017-10-06T08:49:33.173Z,3.23
2017-10-06T08:52:00.138Z,3.00
2017-10-06T08:54:26.341Z,3.20
2017-10-06T08:56:53.346Z,3.80
2017-10-06T08:59:19.554Z,3.50
2017-10-06T09:01:45.782Z,3.07
2017-10-06T09:04:12.007Z,4.57
2017-10-06T09:06:38.224Z,2.73
2017-10-06T09:09:04.441Z,3.20
2017-10-06T09:11:30.631Z,2.33
2017-10-06T09:13:57.867Z,3.87
2017-10-06T09:16:24.052Z,2.80
2017-10-06T09:18:50.269Z,2.53
2017-10-06T09:21:17.224Z,3.93
2017-10-06T09:23:43.467Z,2.50
2017-10-06T09:26:09.658Z,2.50
2017-10-06T09:28:36.610Z,3.70
2017-10-06T09:31:03.553Z,2.17
2017-10-06T09:33:30.509Z,3.37
2017-10-06T09:35:56.696Z,3.27
2017-10-06T09:38:22.916Z,2.67
2017-10-06T09:40:49.102Z,2.10
2017-10-06T09:43:15.321Z,3.27
2017-10-06T09:45:41.529Z,3.53
2017-10-06T09:48:08.477Z,3.30
2017-10-06T09:50:35.413Z,2.33
2017-10-06T09:53:01.617Z,3.00
2017-10-06T09:55:27.815Z,2.80
2017-10-06T09:57:54.081Z,3.50
2017-10-06T10:00:20.277Z,2.57
2017-10-06T10:02:46.566Z,3.40
2017-10-06T10:05:13.513Z,3.33
2017-10-06T10:07:40.485Z,3.10
2017-10-06T10:10:06.673Z,3.30
2017-10-06T10:12:33.705Z,3.03
2017-10-06T10:14:59.898Z,3.23
2017-10-06T10:17:26.113Z,2.87
2017-10-06T10:19:52.298Z,2.70
2017-10-06T10:22:18.526Z,2.90
2017-10-06T10:24:44.729Z,3.07
2017-10-06T10:27:10.945Z,3.23
2017-10-06T10:29:37.141Z,3.10
2017-10-06T10:32:03.365Z,2.80
2017-10-06T10:34:29.558Z,2.77
2017-10-06T10:36:55.771Z,3.17
2017-10-06T10:39:21.983Z,2.90
2017-10-06T10:41:48.233Z,2.63
2017-10-06T10:44:14.445Z,2.70
2017-10-06T10:46:40.701Z,2.83
2017-10-06T10:49:06.941Z,2.80
2017-10-06T10:51:33.169Z,3.27
2017-10-06T10:54:00.110Z,2.80
2017-10-06T10:56:26.369Z,2.97
2017-10-06T10:58:52.582Z,3.47
2017-10-06T11:01:19.598Z,3.57
2017-10-06T11:03:45.813Z,3.63
2017-10-06T11:06:12.033Z,2.70
2017-10-06T11:08:38.277Z,3.40
2017-10-06T11:11:04.541Z,3.17
2017-10-06T11:13:31.522Z,3.47
2017-10-06T11:15:57.769Z,1.83
2017-10-06T11:18:24.034Z,3.00
2017-10-06T11:20:51.013Z,3.00
2017-10-06T11:23:17.270Z,3.30
2017-10-06T11:25:43.477Z,3.40
2017-10-06T11:28:09.733Z,3.20
2017-10-06T11:30:35.949Z,3.13
2017-10-06T11:33:02.193Z,3.53
2017-10-06T11:35:28.417Z,2.73
2017-10-06T11:37:55.751Z,3.17
2017-10-06T11:40:21.972Z,2.20
2017-10-06T11:42:48.197Z,2.93
2017-10-06T11:45:14.411Z,2.47
2017-10-06T11:47:40.653Z,1.90
2017-10-06T11:50:07.735Z,2.93
2017-10-06T11:52:34.098Z,3.60
2017-10-06T11:55:01.058Z,3.00
2017-10-06T11:57:28.045Z,3.30
2017-10-06T11:59:54.253Z,3.67
2017-10-06T12:02:20.494Z,3.43
2017-10-06T12:04:46.718Z,4.77
2017-10-06T12:07:12.946Z,4.40
2017-10-06T12:09:39.166Z,3.67
2017-10-06T12:12:05.447Z,4.10
2017-10-06T12:14:31.678Z,3.90
2017-10-06T12:16:57.889Z,3.37
2017-10-06T12:19:24.125Z,3.17
2017-10-06T12:21:50.358Z,2.80
2017-10-06T12:24:16.597Z,3.30
2017-10-06T12:26:42.801Z,2.80
2017-10-06T12:29:09.032Z,2.60
2017-10-06T12:31:35.238Z,2.77
2017-10-06T12:34:01.474Z,2.23
2017-10-06T12:36:27.713Z,2.60
2017-10-06T12:38:55.445Z,2.23
2017-10-06T12:41:21.650Z,2.73
2017-10-06T12:43:48.675Z,2.20
2017-10-06T12:46:14.897Z,1.60
2017-10-06T12:48:41.882Z,2.50
2017-10-06T12:51:08.110Z,2.47
2017-10-06T12:53:34.326Z,2.50
2017-10-06T12:56:01.284Z,2.63
2017-10-06T12:58:27.520Z,2.27
2017-10-06T13:00:53.745Z,1.67
2017-10-06T13:03:20.002Z,1.70
2017-10-06T13:05:46.210Z,1.73
2017-10-06T13:08:12.425Z,1.50
2017-10-06T13:10:38.661Z,1.80
2017-10-06T13:13:04.887Z,1.30
2017-10-06T13:15:31.157Z,1.37
2017-10-06T13:17:57.357Z,1.80
2017-10-06T13:20:23.609Z,2.13
2017-10-06T13:22:49.845Z,2.17
2017-10-06T13:25:16.069Z,1.80
2017-10-06T13:27:42.253Z,1.40
2017-10-06T13:30:08.445Z,1.37
2017-10-06T13:32:34.666Z,2.13
2017-10-06T13:35:00.848Z,1.47
2017-10-06T13:37:27.068Z,1.00
2017-10-06T13:39:53.274Z,1.60
2017-10-06T13:42:20.233Z,1.37
2017-10-06T13:44:46.421Z,1.50
2017-10-06T13:47:12.633Z,1.30
2017-10-06T13:49:38.817Z,1.67
2017-10-06T13:52:05.137Z,1.37
2017-10-06T13:54:32.061Z,1.40
2017-10-06T13:56:58.261Z,1.33
2017-10-06T13:59:25.199Z,1.20
2017-10-06T14:01:51.433Z,2.00
2017-10-06T14:04:17.634Z,1.20
2017-10-06T14:06:43.864Z,1.60
2017-10-06T14:09:10.061Z,1.47
2017-10-06T14:11:37.020Z,1.80
2017-10-06T14:14:03.214Z,1.70
2017-10-06T14:16:29.490Z,1.40
2017-10-06T14:18:55.716Z,1.73
2017-10-06T14:21:21.994Z,2.10
2017-10-06T14:23:48.209Z,1.90
2017-10-06T14:26:14.450Z,1.63
2017-10-06T14:28:40.636Z,1.60
2017-10-06T14:31:06.863Z,1.60
2017-10-06T14:33:33.081Z,1.63
2017-10-06T14:35:59.303Z,1.77
2017-10-06T14:38:25.497Z,1.93
2017-10-06T14:40:51.722Z,1.73
2017-10-06T14:43:17.913Z,2.03
2017-10-06T14:45:44.159Z,2.17
2017-10-06T14:48:10.542Z,1.90
2017-10-06T14:50:36.788Z,1.90
2017-10-06T14:53:02.990Z,2.90
2017-10-06T14:55:29.967Z,2.60
2017-10-06T14:57:56.164Z,1.90
2017-10-06T15:00:22.369Z,2.60
2017-10-06T15:02:48.598Z,2.23
2017-10-06T15:05:15.572Z,2.77
2017-10-06T15:07:41.810Z,2.60
2017-10-06T15:10:08.025Z,2.87
2017-10-06T15:12:34.264Z,2.37
2017-10-06T15:15:00.469Z,1.90
2017-10-06T15:17:27.434Z,1.90
2017-10-06T15:19:53.678Z,2.23
2017-10-06T15:22:19.934Z,2.47
2017-10-06T15:24:46.141Z,2.17
2017-10-06T15:27:13.171Z,2.33
2017-10-06T15:29:39.373Z,2.37
2017-10-06T15:32:06.333Z,2.30
2017-10-06T15:34:32.529Z,2.20
2017-10-06T15:36:58.774Z,2.90
2017-10-06T15:39:25.716Z,2.73
2017-10-06T15:41:52.714Z,3.10
2017-10-06T15:44:18.917Z,2.40
2017-10-06T15:46:45.129Z,1.97
2017-10-06T15:49:12.074Z,3.20
2017-10-06T15:51:39.045Z,3.07
2017-10-06T15:54:05.341Z,2.60
2017-10-06T15:56:32.302Z,2.67
2017-10-06T15:58:58.492Z,2.87
2017-10-06T16:01:24.758Z,2.50
2017-10-06T16:03:50.958Z,2.50
2017-10-06T16:06:17.209Z,2.37
2017-10-06T16:08:43.421Z,2.17
2017-10-06T16:11:10.385Z,2.93
2017-10-06T16:13:36.613Z,2.60
2017-10-06T16:16:02.834Z,2.90
2017-10-06T16:18:29.124Z,2.90
2017-10-06T16:20:55.346Z,2.60
2017-10-06T16:23:21.577Z,2.23
2017-10-06T16:25:47.774Z,2.73
2017-10-06T16:28:14.013Z,2.63
2017-10-06T16:30:40.250Z,2.50
2017-10-06T16:33:06.458Z,2.63
2017-10-06T16:35:32.666Z,2.17
2017-10-06T16:37:59.123Z,2.10
2017-10-06T16:40:25.337Z,2.57
2017-10-06T16:42:51.545Z,3.00
2017-10-06T16:45:18.530Z,2.30
2017-10-06T16:47:44.760Z,4.70
2017-10-06T16:50:10.981Z,3.33
2017-10-06T16:52:37.183Z,2.40
2017-10-06T16:55:03.409Z,3.40
2017-10-06T16:57:30.331Z,2.73
2017-10-06T16:59:56.558Z,4.70
2017-10-06T17:02:22.749Z,2.40
2017-10-06T17:04:48.958Z,2.70
2017-10-06T17:07:15.165Z,3.90
2017-10-06T17:09:42.129Z,2.63
2017-10-06T17:12:08.354Z,2.87
2017-10-06T17:14:34.579Z,3.13
2017-10-06T17:17:00.785Z,3.07
2017-10-06T17:19:27.757Z,3.30
2017-10-06T17:21:54.042Z,2.97
2017-10-06T17:24:20.318Z,5.77
2017-10-06T17:26:46.525Z,4.27
2017-10-06T17:29:13.498Z,3.63
2017-10-06T17:31:39.719Z,5.60
2017-10-06T17:34:05.925Z,5.20
2017-10-06T17:36:32.966Z,4.20
2017-10-06T17:38:59.894Z,3.10
2017-10-06T17:41:26.489Z,2.87
2017-10-06T17:43:52.674Z,3.10
2017-10-06T17:46:19.622Z,3.47
2017-10-06T17:48:46.584Z,3.70
2017-10-06T17:51:12.770Z,3.13
2017-10-06T17:53:38.998Z,3.50
2017-10-06T17:56:06.364Z,3.27
2017-10-06T17:58:32.575Z,2.50
2017-10-06T18:00:58.770Z,3.50
2017-10-06T18:03:24.992Z,3.40
2017-10-06T18:05:51.186Z,3.00
2017-10-06T18:08:18.162Z,3.43
2017-10-06T18:10:44.383Z,3.60
2017-10-06T18:13:10.581Z,3.30
2017-10-06T18:15:37.542Z,3.87
2017-10-06T18:18:04.515Z,4.07
2017-10-06T18:20:30.709Z,2.40
2017-10-06T18:22:57.689Z,3.10
2017-10-06T18:25:23.881Z,3.43
2017-10-06T18:27:50.843Z,3.77
2017-10-06T18:30:17.061Z,3.77
2017-10-06T18:32:44.087Z,3.70
2017-10-06T18:35:11.092Z,3.03
2017-10-06T18:37:37.305Z,3.63
2017-10-06T18:40:03.510Z,3.17
2017-10-06T18:42:30.445Z,3.50
2017-10-06T18:44:57.409Z,3.80
2017-10-06T18:47:23.621Z,3.40
2017-10-06T18:49:50.571Z,3.70
2017-10-06T18:52:16.838Z,4.23
2017-10-06T18:54:43.026Z,3.10
2017-10-06T18:57:10.025Z,3.33
2017-10-06T18:59:36.238Z,3.20
2017-10-06T19:02:02.458Z,3.60
2017-10-06T19:04:28.645Z,4.30
2017-10-06T19:06:55.606Z,4.40
2017-10-06T19:09:22.549Z,4.50
2017-10-06T19:11:49.500Z,3.80
2017-10-06T19:14:16.491Z,3.73
2017-10-06T19:16:42.717Z,2.83
2017-10-06T19:19:08.906Z,3.80
2017-10-06T19:21:35.213Z,4.37
2017-10-06T19:24:02.157Z,3.50
2017-10-06T19:26:29.082Z,4.43
2017-10-06T19:28:55.424Z,3.57
2017-10-06T19:31:21.624Z,3.90
2017-10-06T19:33:47.857Z,4.90
2017-10-06T19:36:14.099Z,3.70
2017-10-06T19:38:40.334Z,5.20
2017-10-06T19:41:06.541Z,3.27
2017-10-06T19:43:32.777Z,3.93
2017-10-06T19:45:58.994Z,3.93
2017-10-06T19:48:25.257Z,5.03
2017-10-06T19:50:52.194Z,4.40
2017-10-06T19:53:18.418Z,4.40
2017-10-06T19:55:44.639Z,4.13
2017-10-06T19:58:10.850Z,4.50
2017-10-06T20:00:37.090Z,4.17
2017-10-06T20:03:03.285Z,3.77
2017-10-06T20:05:29.500Z,4.43
2017-10-06T20:07:55.758Z,4.20
2017-10-06T20:10:22.714Z,5.13
2017-10-06T20:12:49.644Z,3.80
2017-10-06T20:15:15.885Z,5.20
2017-10-06T20:17:42.099Z,3.93
2017-10-06T20:20:08.341Z,3.70
2017-10-06T20:22:34.558Z,4.33
2017-10-06T20:25:00.737Z,3.83
2017-10-06T20:27:27.685Z,3.33
2017-10-06T20:29:54.674Z,4.40
2017-10-06T20:32:20.904Z,4.30
2017-10-06T20:34:47.917Z,5.27
2017-10-06T20:37:14.146Z,4.27
2017-10-06T20:39:41.125Z,4.40
2017-10-06T20:42:07.346Z,5.33
2017-10-06T20:44:33.566Z,3.97
2017-10-06T20:46:59.795Z,5.83
2017-10-06T20:49:25.990Z,3.40
2017-10-06T20:51:53.233Z,4.17
2017-10-06T20:54:20.181Z,3.40
2017-10-06T20:56:47.220Z,3.70
2017-10-06T20:59:13.411Z,4.93
2017-10-06T21:01:39.691Z,3.97
2017-10-06T21:04:07.033Z,3.47
2017-10-06T21:06:33.233Z,4.10
2017-10-06T21:08:59.426Z,3.77
2017-10-06T21:11:25.681Z,4.23
2017-10-06T21:13:51.886Z,4.30
2017-10-06T21:16:18.074Z,4.70
2017-10-06T21:18:45.077Z,3.40
2017-10-06T21:21:11.301Z,3.43
2017-10-06T21:23:37.678Z,3.47
2017-10-06T21:26:04.040Z,4.27
2017-10-06T21:28:30.337Z,4.30
2017-10-06T21:30:56.790Z,3.50
2017-10-06T21:33:23.797Z,2.83
2017-10-06T21:35:49.994Z,5.67
2017-10-06T21:38:16.205Z,4.97
2017-10-06T21:40:42.454Z,3.80
2017-10-06T21:43:08.799Z,5.20
2017-10-06T21:45:35.115Z,3.90
2017-10-06T21:48:01.357Z,5.43
2017-10-06T21:50:27.601Z,4.10
2017-10-06T21:52:53.821Z,4.20
2017-10-06T21:55:20.035Z,5.87
2017-10-06T21:57:46.367Z,4.40
2017-10-06T22:00:12.680Z,5.87
2017-10-06T22:02:38.897Z,5.27
2017-10-06T22:05:05.097Z,4.43
2017-10-06T22:07:32.225Z,4.70
2017-10-06T22:09:58.597Z,5.00
2017-10-06T22:12:24.850Z,4.73
2017-10-06T22:14:51.201Z,3.70
2017-10-06T22:17:17.485Z,3.20
2017-10-06T22:19:44.473Z,4.30
2017-10-06T22:22:11.534Z,4.37
2017-10-06T22:24:38.002Z,4.40
2017-10-06T22:27:04.965Z,3.83
2017-10-06T22:29:31.162Z,4.80
2017-10-06T22:31:57.405Z,3.77
2017-10-06T22:34:24.330Z,4.50
2017-10-06T22:36:50.668Z,3.97
2017-10-06T22:39:16.858Z,3.50
2017-10-06T22:41:43.185Z,4.00
2017-10-06T22:44:09.418Z,3.73
2017-10-06T22:46:38.097Z,3.70
2017-10-06T22:49:04.425Z,4.43
2017-10-06T22:51:30.646Z,4.30
2017-10-06T22:53:56.957Z,3.73
2017-10-06T22:56:23.157Z,4.40
2017-10-06T22:58:50.165Z,4.80
2017-10-06T23:01:16.348Z,5.00
2017-10-06T23:03:42.677Z,4.07
2017-10-06T23:06:09.604Z,4.20
2017-10-06T23:08:35.841Z,4.73
2017-10-06T23:11:02.781Z,4.37
2017-10-06T23:13:29.741Z,5.30
2017-10-06T23:15:56.670Z,3.60
2017-10-06T23:18:22.876Z,4.07
2017-10-06T23:20:50.573Z,4.00
2017-10-06T23:23:17.665Z,3.90
2017-10-06T23:25:43.852Z,3.47
2017-10-06T23:28:10.808Z,4.13
2017-10-06T23:30:36.993Z,4.07
2017-10-06T23:33:03.193Z,3.93
2017-10-06T23:35:29.410Z,3.53
2017-10-06T23:37:55.681Z,4.30
2017-10-06T23:40:21.904Z,3.40
2017-10-06T23:42:48.097Z,4.00
2017-10-06T23:45:14.416Z,4.37
2017-10-06T23:47:40.621Z,3.47
2017-10-06T23:50:07.639Z,3.40
2017-10-06T23:52:33.841Z,4.07
2017-10-06T23:55:00.133Z,3.97
2017-10-06T23:57:26.339Z,3.23
2017-10-06T23:59:53.385Z,4.70
